Bissau, Guinea-bissau
Current Conditions -  °F | °C
As of 2:00 PM on Friday 19 Dec 2014 (Local Time) from GGOV Reporting Station
Clear Clear  
Wind Chill: 88°   Ceiling: Unl
Heat Index: 88°   Visibility: 6mi
Dew Point: 46°   Wind: 9mph
Humidity: 24%   Direction: 30°NNE
Pressure: 29.85"   Gusts: NA
Location:  11.87°N, 15.6°W
Report Text: GGOV 191400Z 03008KT 360V060 9000 NSC 31/08 Q1011 NOSIG
Loading
Personal Weather Stations






























Interactive Weather Map New forecast layout! Learn more

10-Day Weather Forecast

Advertisements
Track Severe Weather on mobile